Tennessee — FM3908 — position and weather

sailwx.info

Track history (hours):
 
Tides and Currents Weather Stations Pressure Air Temp Water Temp Dewpoint Dewpoint Depression Visibility Wind Speed Wind Dir Waves Ship Positions

Tennessee

Last reported at 2017-Apr-25 07:57 UTC. Time now 2017-Apr-28 00:41 UTC.
Position N 43°30' E 004°44'.

Length 80 m; draft 0.3 m.

Type: Ship. MMSI: 227095770.

Date/timePositionNaut miles runAvg speedWind from/ knotsBaromVisibWave heightAir tempDewpointWater temp
2017-Apr-25 07:57N 43°30' E 004°44'3 6.8
2017-Apr-25 07:31N 43°28' E 004°45'2 1.3
2017-Apr-25 05:57N 43°26' E 004°46'0 0.0
2017-Apr-25 05:30N 43°26' E 004°46'0 0.0
2017-Apr-25 03:32N 43°26' E 004°46'0 0.0
2017-Apr-25 03:30N 43°26' E 004°46'0 0.0
2017-Apr-25 01:58N 43°26' E 004°46'0 0.0
2017-Apr-25 01:30N 43°26' E 004°46'0 0.0
2017-Apr-24 23:58N 43°26' E 004°46'0 0.0
2017-Apr-24 21:58N 43°26' E 004°46'0 0.0
2017-Apr-24 21:30N 43°26' E 004°46'0 0.0
2017-Apr-24 19:59N 43°26' E 004°46'0 0.0
2017-Apr-24 19:30N 43°26' E 004°46'0 0.0
2017-Apr-24 17:59N 43°26' E 004°46'0 0.0
2017-Apr-24 17:30N 43°26' E 004°46'0 0.0
2017-Apr-24 15:59N 43°26' E 004°46'0 0.0
2017-Apr-24 15:30N 43°26' E 004°46'0 0.0
2017-Apr-24 14:00N 43°26' E 004°46'0 0.0
2017-Apr-24 13:30N 43°26' E 004°46'0 0.0
2017-Apr-24 12:00N 43°26' E 004°46'0 0.0
2017-Apr-24 11:30N 43°26' E 004°46'0 0.0
2017-Apr-24 10:00N 43°26' E 004°46'0 0.0
2017-Apr-24 08:01N 43°26' E 004°46'0 0.0
2017-Apr-24 07:30N 43°26' E 004°46'0 0.0
2017-Apr-24 07:00N 43°26' E 004°46'2 3.5
2017-Apr-24 06:30N 43°27' E 004°48'3 5.4
2017-Apr-24 05:59N 43°27' E 004°51'3 6.1
2017-Apr-24 05:30N 43°24' E 004°52'0 0.9
2017-Apr-24 05:00N 43°24' E 004°51'0 0.0
2017-Apr-24 04:30N 43°24' E 004°51'0 0.0
2017-Apr-24 04:00N 43°24' E 004°51'0 0.0
2017-Apr-24 03:28N 43°24' E 004°51'0 0.0
2017-Apr-24 02:58N 43°24' E 004°51'0 0.0
2017-Apr-24 02:25N 43°24' E 004°51'0 0.0
2017-Apr-24 02:00N 43°24' E 004°51'0 0.0
2017-Apr-24 01:28N 43°24' E 004°51'0 0.0
2017-Apr-23 22:01N 43°24' E 004°51'0 0.0
2017-Apr-23 21:59N 43°24' E 004°51'0 0.0
2017-Apr-23 20:02N 43°24' E 004°51'0 0.0
2017-Apr-23 18:03N 43°24' E 004°51'0 0.0
2017-Apr-23 18:00N 43°24' E 004°51'0 0.0
2017-Apr-23 16:02N 43°24' E 004°51'0 0.0
2017-Apr-23 16:00N 43°24' E 004°51'0 0.0
2017-Apr-23 14:04N 43°24' E 004°51'4 2.0
2017-Apr-23 12:04N 43°24' E 004°46'1 9.1
2017-Apr-23 12:00N 43°25' E 004°45'  
Track history (hours):
 
Tides and Currents Weather Stations Pressure Air Temp Water Temp Dewpoint Dewpoint Depression Visibility Wind Speed Wind Dir Waves Ship Positions

Tennessee

Last reported at 2017-Apr-25 07:57 UTC. Time now 2017-Apr-28 00:41 UTC.
Position N 43°30' E 004°44'.

Length 80 m; draft 0.3 m.

Type: Ship. MMSI: 227095770.

Date/timePositionNaut miles runAvg speedWind from/ knotsBaromVisibWave heightAir tempDewpointWater temp
2017-Apr-25 07:57N 43°30' E 004°44'3 6.8
2017-Apr-25 07:31N 43°28' E 004°45'2 1.3
2017-Apr-25 05:57N 43°26' E 004°46'0 0.0
2017-Apr-25 05:30N 43°26' E 004°46'0 0.0
2017-Apr-25 03:32N 43°26' E 004°46'0 0.0
2017-Apr-25 03:30N 43°26' E 004°46'0 0.0
2017-Apr-25 01:58N 43°26' E 004°46'0 0.0
2017-Apr-25 01:30N 43°26' E 004°46'0 0.0
2017-Apr-24 23:58N 43°26' E 004°46'0 0.0
2017-Apr-24 21:58N 43°26' E 004°46'0 0.0
2017-Apr-24 21:30N 43°26' E 004°46'0 0.0
2017-Apr-24 19:59N 43°26' E 004°46'0 0.0
2017-Apr-24 19:30N 43°26' E 004°46'0 0.0
2017-Apr-24 17:59N 43°26' E 004°46'0 0.0
2017-Apr-24 17:30N 43°26' E 004°46'0 0.0
2017-Apr-24 15:59N 43°26' E 004°46'0 0.0
2017-Apr-24 15:30N 43°26' E 004°46'0 0.0
2017-Apr-24 14:00N 43°26' E 004°46'0 0.0
2017-Apr-24 13:30N 43°26' E 004°46'0 0.0
2017-Apr-24 12:00N 43°26' E 004°46'0 0.0
2017-Apr-24 11:30N 43°26' E 004°46'0 0.0
2017-Apr-24 10:00N 43°26' E 004°46'0 0.0
2017-Apr-24 08:01N 43°26' E 004°46'0 0.0
2017-Apr-24 07:30N 43°26' E 004°46'0 0.0
2017-Apr-24 07:00N 43°26' E 004°46'2 3.5
2017-Apr-24 06:30N 43°27' E 004°48'3 5.4
2017-Apr-24 05:59N 43°27' E 004°51'3 6.1
2017-Apr-24 05:30N 43°24' E 004°52'0 0.9
2017-Apr-24 05:00N 43°24' E 004°51'0 0.0
2017-Apr-24 04:30N 43°24' E 004°51'0 0.0
2017-Apr-24 04:00N 43°24' E 004°51'0 0.0
2017-Apr-24 03:28N 43°24' E 004°51'0 0.0
2017-Apr-24 02:58N 43°24' E 004°51'0 0.0
2017-Apr-24 02:25N 43°24' E 004°51'0 0.0
2017-Apr-24 02:00N 43°24' E 004°51'0 0.0
2017-Apr-24 01:28N 43°24' E 004°51'0 0.0
2017-Apr-23 22:01N 43°24' E 004°51'0 0.0
2017-Apr-23 21:59N 43°24' E 004°51'0 0.0
2017-Apr-23 20:02N 43°24' E 004°51'0 0.0
2017-Apr-23 18:03N 43°24' E 004°51'0 0.0
2017-Apr-23 18:00N 43°24' E 004°51'0 0.0
2017-Apr-23 16:02N 43°24' E 004°51'0 0.0
2017-Apr-23 16:00N 43°24' E 004°51'0 0.0
2017-Apr-23 14:04N 43°24' E 004°51'4 2.0
2017-Apr-23 12:04N 43°24' E 004°46'1 9.1
2017-Apr-23 12:00N 43°25' E 004°45'  

Dump ship's entire track history